Time;durP1;ratioP1;P1;durP2;ratioP2;P2;SDS_P1;SDS_P2;PMS_P1;PMS_P2;Temp;Humidity;BMP_temperature;BMP_pressure;BME280_temperature;BME280_humidity;BME280_pressure;Samples;Min_cycle;Max_cycle;Signal;HPM_P1;HPM_P2
2021/11/06 00:01:31;;;;;;;9.02;4.50;;;;;;;7.14;nan;102285.34;5058973;28;20055;-52
2021/11/06 00:03:56;;;;;;;9.32;4.82;;;;;;;7.07;nan;102284.44;5061483;28;20043;-54
2021/11/06 00:06:22;;;;;;;9.48;4.55;;;;;;;7.12;nan;102284.69;5048681;28;20055;-53
2021/11/06 00:08:47;;;;;;;8.82;4.43;;;;;;;7.16;nan;102286.78;5064238;28;20028;-53
2021/11/06 00:11:13;;;;;;;10.70;4.75;;;;;;;7.09;nan;102287.75;5067254;28;20527;-52
2021/11/06 00:13:39;;;;;;;9.98;5.00;;;;;;;7.09;nan;102291.25;5059895;28;20485;-54
2021/11/06 00:16:04;;;;;;;12.35;4.95;;;;;;;7.07;nan;102279.94;5061446;28;20024;-51
2021/11/06 00:18:30;;;;;;;10.40;4.82;;;;;;;7.08;nan;102294.09;5058428;28;20032;-54
2021/11/06 00:20:55;;;;;;;9.70;4.80;;;;;;;7.02;nan;102287.69;5066502;28;20463;-51
2021/11/06 00:23:21;;;;;;;10.27;4.88;;;;;;;7.03;nan;102293.84;5063839;28;20112;-53
2021/11/06 00:25:46;;;;;;;8.52;4.38;;;;;;;7.01;nan;102298.53;5064066;28;20040;-52
2021/11/06 00:28:12;;;;;;;8.80;5.07;;;;;;;7.04;nan;102301.63;5059038;28;20436;-52
2021/11/06 00:30:38;;;;;;;9.00;4.43;;;;;;;7.08;nan;102302.91;5063313;28;20027;-53
2021/11/06 00:33:04;;;;;;;10.75;4.95;;;;;;;7.10;nan;102316.06;5064280;28;20024;-53
2021/11/06 00:35:29;;;;;;;10.45;4.90;;;;;;;7.20;nan;102306.75;5061194;28;20181;-53
2021/11/06 00:37:55;;;;;;;9.98;6.05;;;;;;;7.26;nan;102302.50;5060473;28;20058;-51
2021/11/06 00:40:21;;;;;;;10.05;4.85;;;;;;;7.21;nan;102310.25;5042291;28;20115;-54
2021/11/06 00:42:46;;;;;;;8.82;4.68;;;;;;;7.25;nan;102304.34;5064894;28;20048;-53
2021/11/06 00:45:13;;;;;;;9.13;4.70;;;;;;;7.24;nan;102310.69;5065408;28;20083;-54
2021/11/06 00:47:40;;;;;;;7.60;4.78;;;;;;;7.31;nan;102305.44;5066361;28;20028;-54
2021/11/06 00:50:09;;;;;;;10.13;4.93;;;;;;;7.33;nan;102311.41;5065239;28;20047;-53
2021/11/06 00:52:35;;;;;;;17.55;5.95;;;;;;;7.34;nan;102309.56;5058175;28;20508;-53
2021/11/06 00:55:01;;;;;;;8.25;4.68;;;;;;;7.39;nan;102312.50;5032341;28;20029;-52
2021/11/06 00:57:27;;;;;;;7.93;4.97;;;;;;;7.41;nan;102310.47;5040591;28;20420;-54
2021/11/06 00:59:53;;;;;;;9.20;4.97;;;;;;;7.41;nan;102305.97;5060976;28;20127;-54
2021/11/06 01:02:19;;;;;;;12.15;5.00;;;;;;;7.42;nan;102302.28;5062776;28;20486;-52
2021/11/06 01:04:44;;;;;;;9.25;5.28;;;;;;;7.42;nan;102307.59;5060804;28;20028;-52
2021/11/06 01:07:10;;;;;;;12.73;5.25;;;;;;;7.52;nan;102300.09;5058520;28;20021;-55
2021/11/06 01:09:35;;;;;;;9.18;5.68;;;;;;;7.53;nan;102306.25;5058783;28;20021;-56
2021/11/06 01:12:02;;;;;;;11.32;4.30;;;;;;;7.48;nan;102295.34;5063789;28;20257;-54
2021/11/06 01:14:27;;;;;;;7.25;4.88;;;;;;;7.48;nan;102298.84;5062916;28;20032;-53
2021/11/06 01:16:53;;;;;;;7.72;4.60;;;;;;;7.51;nan;102298.47;5066238;28;20025;-52
2021/11/06 01:19:18;;;;;;;7.43;4.65;;;;;;;7.62;nan;102301.66;5057656;28;20090;-54
2021/11/06 01:21:44;;;;;;;9.05;4.82;;;;;;;7.61;nan;102305.34;5062607;28;20021;-51
2021/11/06 01:24:10;;;;;;;8.05;5.13;;;;;;;7.63;nan;102297.97;5060265;28;20028;-54
2021/11/06 01:26:35;;;;;;;9.02;4.47;;;;;;;7.69;nan;102286.53;5061609;28;20056;-53
2021/11/06 01:29:01;;;;;;;9.15;5.03;;;;;;;7.73;nan;102287.81;5062768;28;20028;-52
2021/11/06 01:31:28;;;;;;;9.52;4.90;;;;;;;7.74;nan;102289.47;5045830;28;20952;-55
2021/11/06 01:34:01;;;;;;;10.50;5.00;;;;;;;7.72;100.00;102297.66;5077476;27;20409;-53
2021/11/06 01:36:26;;;;;;;8.05;4.50;;;;;;;7.65;100.00;102290.59;5078060;28;20035;-52
2021/11/06 01:38:52;;;;;;;9.43;4.65;;;;;;;7.70;100.00;102299.66;5077529;28;20039;-53
2021/11/06 01:41:17;;;;;;;10.20;5.38;;;;;;;7.65;100.00;102304.75;5078411;28;20047;-53
2021/11/06 01:43:43;;;;;;;7.75;4.50;;;;;;;7.67;100.00;102302.72;5076425;28;20111;-51
2021/11/06 01:46:09;;;;;;;8.48;4.78;;;;;;;7.72;100.00;102308.31;5079099;28;20028;-54
2021/11/06 01:48:36;;;;;;;12.45;5.45;;;;;;;7.78;100.00;102298.72;5076696;28;20032;-53
2021/11/06 01:51:03;;;;;;;10.38;4.85;;;;;;;7.78;100.00;102296.06;5079297;28;20050;-53
2021/11/06 01:53:29;;;;;;;12.18;5.47;;;;;;;7.79;100.00;102303.88;5076863;28;20116;-54
2021/11/06 01:55:56;;;;;;;9.73;5.20;;;;;;;7.84;100.00;102292.59;5077990;28;20549;-51
2021/11/06 01:58:24;;;;;;;9.32;5.28;;;;;;;7.73;100.00;102296.63;5078957;28;20028;-52
2021/11/06 02:00:51;;;;;;;8.77;5.13;;;;;;;7.81;100.00;102301.00;5074705;28;20028;-53
2021/11/06 02:03:16;;;;;;;10.00;5.18;;;;;;;7.86;100.00;102303.91;5075489;28;20028;-51
2021/11/06 02:05:43;;;;;;;7.25;5.18;;;;;;;7.79;100.00;102303.88;5078231;28;20073;-53
2021/11/06 02:08:09;;;;;;;9.15;5.28;;;;;;;7.78;100.00;102315.56;5078814;28;20043;-54
2021/11/06 02:10:35;;;;;;;10.13;5.22;;;;;;;7.84;100.00;102312.13;5076113;28;20024;-55
2021/11/06 02:13:00;;;;;;;10.82;5.75;;;;;;;7.90;100.00;102307.88;5077678;28;20375;-53
2021/11/06 02:15:26;;;;;;;8.73;4.85;;;;;;;7.86;100.00;102314.59;5074920;28;20024;-52
2021/11/06 02:17:52;;;;;;;10.85;4.90;;;;;;;7.87;100.00;102316.25;5076331;28;20584;-53
2021/11/06 02:20:20;;;;;;;11.32;5.20;;;;;;;7.91;100.00;102322.88;5073992;28;20024;-52
2021/11/06 02:22:45;;;;;;;9.65;5.18;;;;;;;7.86;100.00;102314.59;5077016;28;20093;-51
2021/11/06 02:25:12;;;;;;;9.88;4.45;;;;;;;7.88;100.00;102323.22;5078079;28;20478;-53
2021/11/06 02:27:39;;;;;;;12.00;4.97;;;;;;;7.92;100.00;102313.84;5074816;28;20187;-51
2021/11/06 02:30:07;;;;;;;9.05;4.80;;;;;;;7.91;100.00;102327.38;5076927;28;20047;-51
2021/11/06 02:32:33;;;;;;;10.30;5.18;;;;;;;7.89;99.80;102319.53;5075284;28;20189;-53
2021/11/06 02:34:58;;;;;;;9.80;4.68;;;;;;;7.97;100.00;102322.09;5076798;28;20691;-52
2021/11/06 02:37:24;;;;;;;9.02;4.82;;;;;;;7.90;100.00;102323.88;5077436;28;20021;-51
2021/11/06 02:39:49;;;;;;;8.13;4.40;;;;;;;7.92;100.00;102319.19;5077461;28;20036;-51
2021/11/06 02:42:15;;;;;;;9.43;5.32;;;;;;;7.93;100.00;102310.16;5074081;28;20107;-55
2021/11/06 02:44:41;;;;;;;7.32;4.80;;;;;;;7.86;100.00;102317.25;5067243;28;20417;-52
2021/11/06 02:47:07;;;;;;;6.90;4.82;;;;;;;7.95;100.00;102308.13;5060481;28;20367;-54
2021/11/06 02:49:33;;;;;;;9.95;4.80;;;;;;;7.87;100.00;102309.06;5061531;28;20509;-53
2021/11/06 02:51:58;;;;;;;7.18;4.53;;;;;;;7.92;99.92;102318.34;5060507;28;20063;-51
2021/11/06 02:54:24;;;;;;;6.78;4.90;;;;;;;7.85;100.00;102315.59;5061939;28;20375;-52
2021/11/06 02:56:50;;;;;;;7.18;4.38;;;;;;;7.90;100.00;102310.53;5060769;28;20429;-54
2021/11/06 02:59:16;;;;;;;19.30;5.03;;;;;;;7.90;100.00;102305.22;5061936;28;20028;-53
2021/11/06 03:01:43;;;;;;;9.25;5.10;;;;;;;7.97;100.00;102311.41;5061453;28;20089;-54
2021/11/06 03:04:10;;;;;;;7.82;4.47;;;;;;;7.81;100.00;102322.34;5063252;28;20093;-54
2021/11/06 03:06:36;;;;;;;10.02;4.68;;;;;;;7.84;100.00;102319.28;5061277;28;20039;-53
2021/11/06 03:09:04;;;;;;;7.90;4.70;;;;;;;7.93;100.00;102333.34;5060798;28;20028;-52
2021/11/06 03:11:31;;;;;;;13.23;4.88;;;;;;;7.96;100.00;102340.97;5078389;28;20553;-53
2021/11/06 03:13:57;;;;;;;8.65;5.10;;;;;;;7.85;100.00;102334.28;5062560;28;20465;-55
2021/11/06 03:16:22;;;;;;;7.45;4.55;;;;;;;7.87;100.00;102333.06;5061319;28;20113;-57
2021/11/06 03:18:48;;;;;;;11.90;5.40;;;;;;;7.89;100.00;102323.03;5060623;28;20035;-55
2021/11/06 03:21:13;;;;;;;9.75;4.90;;;;;;;7.91;100.00;102325.53;5062474;28;20020;-54
2021/11/06 03:23:39;;;;;;;9.48;4.93;;;;;;;7.74;100.00;102332.97;5061050;28;20270;-54
2021/11/06 03:26:04;;;;;;;11.57;5.53;;;;;;;7.92;100.00;102323.69;5064082;28;20035;-56
2021/11/06 03:28:30;;;;;;;7.45;4.50;;;;;;;7.88;100.00;102331.22;5063102;28;20712;-56
2021/11/06 03:30:56;;;;;;;9.48;5.00;;;;;;;7.87;100.00;102335.75;5064386;28;20167;-55
2021/11/06 03:33:21;;;;;;;6.82;5.00;;;;;;;7.96;100.00;102343.63;5061078;28;20115;-56
2021/11/06 03:35:47;;;;;;;7.85;4.72;;;;;;;7.96;100.00;102341.78;5061222;28;20036;-54
2021/11/06 03:38:13;;;;;;;8.50;4.40;;;;;;;7.99;100.00;102346.75;5060792;28;20052;-55
2021/11/06 03:40:38;;;;;;;6.13;4.35;;;;;;;7.90;100.00;102350.56;5060593;28;20059;-55
2021/11/06 03:43:04;;;;;;;6.50;4.18;;;;;;;7.97;100.00;102338.09;5061034;28;20466;-54
2021/11/06 03:45:30;;;;;;;8.07;3.92;;;;;;;7.99;100.00;102352.09;5057994;28;20119;-55
2021/11/06 03:47:55;;;;;;;12.05;4.53;;;;;;;7.93;100.00;102347.53;5056857;28;20033;-54
2021/11/06 03:50:21;;;;;;;6.05;3.60;;;;;;;7.96;100.00;102347.13;5062537;28;20029;-57
2021/11/06 03:52:46;;;;;;;7.43;3.80;;;;;;;7.92;100.00;102351.22;5059974;28;20120;-53
2021/11/06 03:55:14;;;;;;;7.65;4.45;;;;;;;7.98;100.00;102354.94;5057455;28;20056;-57
2021/11/06 03:57:39;;;;;;;7.20;4.10;;;;;;;7.96;100.00;102357.81;5059948;28;20086;-55
2021/11/06 04:00:11;;;;;;;8.32;4.25;;;;;;;7.86;100.00;102351.94;5060496;28;20028;-54
2021/11/06 04:02:37;;;;;;;7.72;3.72;;;;;;;7.88;100.00;102366.75;5060988;28;20105;-53
2021/11/06 04:05:03;;;;;;;5.65;3.65;;;;;;;7.85;100.00;102356.47;5061606;28;20486;-54
2021/11/06 04:07:28;;;;;;;7.15;4.28;;;;;;;7.92;100.00;102355.72;5060870;28;20037;-57
2021/11/06 04:09:54;;;;;;;6.60;3.75;;;;;;;7.89;100.00;102362.25;5062342;28;20094;-55
2021/11/06 04:12:19;;;;;;;6.10;3.97;;;;;;;7.78;100.00;102360.91;5056886;28;20557;-55
2021/11/06 04:14:45;;;;;;;6.50;4.25;;;;;;;7.81;100.00;102367.72;5056880;28;20428;-55
2021/11/06 04:17:10;;;;;;;6.35;3.70;;;;;;;7.87;100.00;102361.59;5060634;28;20024;-56
2021/11/06 04:19:36;;;;;;;8.45;4.40;;;;;;;7.89;100.00;102359.56;5059959;28;20021;-55
2021/11/06 04:22:01;;;;;;;6.10;4.47;;;;;;;7.82;100.00;102358.69;5061826;28;20524;-55
2021/11/06 04:24:27;;;;;;;6.05;4.20;;;;;;;7.77;100.00;102356.59;5059674;28;20383;-55
2021/11/06 04:26:53;;;;;;;8.25;4.90;;;;;;;7.88;100.00;102360.59;5060915;28;20161;-53
2021/11/06 04:29:18;;;;;;;8.32;4.88;;;;;;;7.83;100.00;102358.50;5057888;28;20108;-56
2021/11/06 04:31:44;;;;;;;9.90;4.70;;;;;;;7.78;100.00;102360.91;5060496;28;20134;-55
2021/11/06 04:34:09;;;;;;;8.73;5.40;;;;;;;7.74;100.00;102364.16;5061613;28;20021;-56
2021/11/06 04:36:35;;;;;;;9.02;5.45;;;;;;;7.79;100.00;102362.56;5059214;28;20200;-57
2021/11/06 04:39:00;;;;;;;13.30;5.20;;;;;;;7.79;100.00;102361.75;5061044;28;20516;-53
2021/11/06 04:41:26;;;;;;;11.63;5.97;;;;;;;7.81;100.00;102357.88;5059643;28;20020;-56
2021/11/06 04:43:52;;;;;;;7.63;5.53;;;;;;;7.69;100.00;102361.22;5055113;28;20024;-53
2021/11/06 04:46:18;;;;;;;9.88;5.50;;;;;;;7.81;100.00;102362.38;5061480;28;20478;-53
2021/11/06 04:48:43;;;;;;;7.63;4.95;;;;;;;7.78;100.00;102360.91;5059341;28;20119;-55
2021/11/06 04:51:09;;;;;;;12.68;6.47;;;;;;;7.79;100.00;102364.41;5061432;28;20103;-56
2021/11/06 04:53:34;;;;;;;11.18;6.40;;;;;;;7.78;100.00;102360.09;5059608;28;20043;-53
2021/11/06 04:56:00;;;;;;;10.00;5.97;;;;;;;7.79;100.00;102356.41;5057807;28;20335;-56
2021/11/06 04:58:25;;;;;;;13.00;6.00;;;;;;;7.75;100.00;102371.97;5060072;28;20036;-55
2021/11/06 05:00:51;;;;;;;10.98;6.38;;;;;;;7.79;100.00;102362.56;5058793;28;20043;-54
2021/11/06 05:03:17;;;;;;;15.90;6.18;;;;;;;7.74;100.00;102370.31;5058636;28;20020;-56
2021/11/06 05:05:42;;;;;;;10.27;6.60;;;;;;;7.71;100.00;102381.34;5061010;28;20074;-56
2021/11/06 05:08:08;;;;;;;11.48;5.80;;;;;;;7.78;100.00;102368.94;5058362;28;20103;-57
2021/11/06 05:10:34;;;;;;;7.90;5.65;;;;;;;7.82;100.00;102374.69;5057738;28;20291;-55
2021/11/06 05:12:59;;;;;;;9.25;5.65;;;;;;;7.80;100.00;102372.22;5061367;28;20032;-53
2021/11/06 05:15:25;;;;;;;14.75;6.88;;;;;;;7.79;100.00;102375.91;5059611;28;20013;-53
2021/11/06 05:17:52;;;;;;;15.55;6.35;;;;;;;7.85;100.00;102372.47;5060407;28;20025;-55
2021/11/06 05:20:18;;;;;;;13.10;6.47;;;;;;;7.86;100.00;102362.63;5060617;28;20452;-54
2021/11/06 05:22:44;;;;;;;12.88;6.88;;;;;;;7.77;100.00;102369.13;5059003;28;20111;-56
2021/11/06 05:25:10;;;;;;;11.93;6.63;;;;;;;7.95;100.00;102371.34;5060616;28;20454;-56
2021/11/06 05:27:35;;;;;;;12.88;6.50;;;;;;;7.75;100.00;102363.97;5058001;28;20026;-57
2021/11/06 05:30:04;;;;;;;10.15;5.57;;;;;;;7.87;100.00;102373.09;5061117;28;20020;-55
2021/11/06 05:32:31;;;;;;;12.65;5.93;;;;;;;7.82;100.00;102377.38;5059362;28;20074;-57
2021/11/06 05:34:57;;;;;;;16.45;6.90;;;;;;;7.74;100.00;102375.66;5060398;28;20039;-56
2021/11/06 05:37:22;;;;;;;12.48;6.30;;;;;;;7.75;100.00;102365.81;5057269;28;20016;-55
2021/11/06 05:39:48;;;;;;;12.02;6.38;;;;;;;7.76;100.00;102370.97;5059909;28;20020;-53
2021/11/06 05:42:14;;;;;;;9.23;5.78;;;;;;;7.85;100.00;102377.81;5060147;28;20398;-56
2021/11/06 05:44:39;;;;;;;12.02;7.07;;;;;;;7.86;100.00;102378.63;5058146;28;20029;-53
2021/11/06 05:47:05;;;;;;;9.55;5.68;;;;;;;7.85;100.00;102366.31;5060852;28;20101;-56
2021/11/06 05:49:30;;;;;;;11.32;6.15;;;;;;;7.87;100.00;102378.44;5056209;28;20016;-56
2021/11/06 05:51:56;;;;;;;10.95;6.18;;;;;;;7.81;100.00;102383.72;5054337;28;20029;-57
2021/11/06 05:54:21;;;;;;;9.00;5.20;;;;;;;7.88;100.00;102388.09;5059726;28;20032;-53
2021/11/06 05:56:47;;;;;;;10.85;6.28;;;;;;;7.76;100.00;102386.97;5059855;28;20023;-53
2021/11/06 05:59:12;;;;;;;10.10;5.15;;;;;;;7.83;100.00;102379.03;5060015;28;20060;-57
2021/11/06 06:01:38;;;;;;;10.73;4.82;;;;;;;7.87;100.00;102383.78;5057286;28;20059;-56
2021/11/06 06:04:04;;;;;;;12.70;6.20;;;;;;;7.78;100.00;102389.44;5055008;28;20085;-56
2021/11/06 06:06:30;;;;;;;12.35;5.80;;;;;;;7.93;100.00;102400.06;5059712;28;20036;-56
2021/11/06 06:08:55;;;;;;;14.52;5.30;;;;;;;7.82;100.00;102394.22;5058264;28;20166;-55
2021/11/06 06:11:21;;;;;;;9.80;4.72;;;;;;;7.82;100.00;102396.06;5058012;28;20448;-56
2021/11/06 06:13:46;;;;;;;12.63;5.15;;;;;;;7.82;100.00;102404.06;5057147;28;20025;-54
2021/11/06 06:16:12;;;;;;;9.23;5.32;;;;;;;7.84;100.00;102394.00;5056127;28;20107;-56
2021/11/06 06:18:38;;;;;;;8.32;5.10;;;;;;;7.88;100.00;102387.28;5053019;28;20033;-53
2021/11/06 06:21:04;;;;;;;9.45;5.15;;;;;;;7.77;99.50;102396.63;5061580;28;20263;-54
2021/11/06 06:23:29;;;;;;;10.57;5.13;;;;;;;7.84;99.40;102397.50;5060856;28;20032;-56
2021/11/06 06:25:55;;;;;;;6.50;4.40;;;;;;;7.87;98.98;102401.63;5061503;28;20112;-53
2021/11/06 06:28:20;;;;;;;8.75;4.82;;;;;;;7.94;97.94;102407.06;5063344;28;20055;-56
2021/11/06 06:30:45;;;;;;;7.72;3.88;;;;;;;7.94;97.93;102407.88;5061657;28;20036;-56
2021/11/06 06:33:11;;;;;;;9.38;4.57;;;;;;;8.01;98.34;102411.44;5061898;28;20067;-55
2021/11/06 06:35:37;;;;;;;12.57;4.78;;;;;;;7.92;97.98;102415.25;5058796;28;20478;-55
2021/11/06 06:38:03;;;;;;;7.63;4.05;;;;;;;7.99;98.21;102409.97;5063463;28;20070;-56
2021/11/06 06:40:29;;;;;;;10.02;4.70;;;;;;;7.92;97.26;102414.44;5061205;28;21030;-53
2021/11/06 06:42:55;;;;;;;7.78;3.80;;;;;;;7.99;97.10;102417.97;5061929;28;20016;-57
2021/11/06 06:45:22;;;;;;;9.48;3.95;;;;;;;7.98;97.26;102417.16;5062124;28;20513;-57
2021/11/06 06:47:48;;;;;;;6.13;3.60;;;;;;;7.99;96.32;102420.66;5059595;28;20055;-53
2021/11/06 06:50:13;;;;;;;7.15;4.03;;;;;;;8.01;96.82;102426.63;5061623;28;20059;-57
2021/11/06 06:52:40;;;;;;;6.63;4.25;;;;;;;7.97;96.50;102428.03;5060806;28;20108;-57
2021/11/06 06:55:06;;;;;;;5.68;3.28;;;;;;;8.05;97.04;102419.88;5062144;28;20048;-56
2021/11/06 06:57:32;;;;;;;8.23;3.70;;;;;;;8.12;96.97;102426.13;5060379;28;20247;-55
2021/11/06 06:59:57;;;;;;;5.57;4.05;;;;;;;8.04;96.53;102424.41;5059002;28;20029;-56
2021/11/06 07:02:23;;;;;;;5.75;3.50;;;;;;;8.10;96.30;102420.97;5056789;28;20035;-54
2021/11/06 07:04:49;;;;;;;6.82;3.55;;;;;;;8.02;96.45;102421.09;5059285;28;20024;-53
2021/11/06 07:07:14;;;;;;;9.93;3.90;;;;;;;7.91;96.40;102426.94;5061532;28;20450;-56
2021/11/06 07:09:40;;;;;;;10.43;4.10;;;;;;;7.94;96.64;102433.75;5059721;28;20020;-55
2021/11/06 07:12:07;;;;;;;6.90;3.72;;;;;;;7.97;96.98;102428.84;5058623;28;20041;-54
2021/11/06 07:14:32;;;;;;;15.30;4.57;;;;;;;7.96;96.72;102435.22;5056562;28;20040;-57
2021/11/06 07:16:58;;;;;;;8.45;4.13;;;;;;;8.15;96.71;102437.25;5060945;28;20033;-55
2021/11/06 07:19:24;;;;;;;9.23;4.07;;;;;;;8.09;96.63;102432.69;5061472;28;20119;-55
2021/11/06 07:21:50;;;;;;;10.13;4.25;;;;;;;8.14;96.24;102430.25;5061656;28;20747;-56
2021/11/06 07:24:16;;;;;;;8.05;4.22;;;;;;;8.23;96.12;102433.63;5058645;28;20141;-56
2021/11/06 07:26:41;;;;;;;11.00;4.13;;;;;;;8.34;95.72;102429.66;5062256;28;20378;-53
2021/11/06 07:29:07;;;;;;;7.57;4.30;;;;;;;8.35;95.33;102432.13;5058595;28;20047;-56
2021/11/06 07:31:32;;;;;;;9.38;4.97;;;;;;;8.39;95.62;102440.56;5058601;28;20028;-55
2021/11/06 07:33:58;;;;;;;7.72;4.10;;;;;;;8.48;94.80;102432.25;5057857;28;20067;-56
2021/11/06 07:36:24;;;;;;;11.32;3.65;;;;;;;8.63;95.33;102426.81;5061916;28;20107;-55
2021/11/06 07:38:50;;;;;;;13.35;4.35;;;;;;;8.58;93.64;102434.56;5058253;28;20033;-56
2021/11/06 07:41:16;;;;;;;8.23;3.90;;;;;;;8.74;94.24;102441.47;5058596;28;20056;-56
2021/11/06 07:43:42;;;;;;;7.43;3.70;;;;;;;8.70;93.53;102443.72;5059947;28;20489;-54
2021/11/06 07:46:09;;;;;;;9.10;4.07;;;;;;;8.72;93.49;102444.34;5054836;22;20036;-84
2021/11/06 07:48:34;;;;;;;5.95;3.83;;;;;;;8.63;93.04;102442.84;5027627;28;20053;-84
2021/11/06 07:51:10;;;;;;;7.00;3.67;;;;;;;8.63;93.55;102442.03;5025287;28;20068;-85
2021/11/06 07:53:36;;;;;;;10.40;4.18;;;;;;;8.67;93.08;102448.63;5027682;28;20029;-86
2021/11/06 07:56:03;;;;;;;6.03;3.50;;;;;;;8.72;93.45;102448.88;5036353;28;20093;-86
2021/11/06 07:58:29;;;;;;;6.65;3.40;;;;;;;8.59;92.63;102444.22;5022546;28;20028;-86
2021/11/06 08:00:57;;;;;;;8.07;3.17;;;;;;;8.62;93.00;102454.56;5021011;28;20423;-87
2021/11/06 08:03:22;;;;;;;4.57;3.30;;;;;;;8.45;92.58;102447.84;5027942;28;20618;-85
2021/11/06 08:05:48;;;;;;;6.40;3.47;;;;;;;8.55;93.83;102461.69;5030906;28;20037;-88
2021/11/06 08:08:13;;;;;;;4.47;3.30;;;;;;;8.47;93.19;102467.16;5031328;28;20501;-88
2021/11/06 08:10:39;;;;;;;6.40;3.20;;;;;;;8.52;93.57;102464.72;5023362;28;20029;-88
2021/11/06 08:13:06;;;;;;;9.35;3.90;;;;;;;8.36;93.08;102473.00;5031304;28;20044;-88
2021/11/06 08:15:32;;;;;;;12.35;3.67;;;;;;;8.39;92.83;102476.13;5043538;28;20057;-87
2021/11/06 08:17:58;;;;;;;11.75;3.35;;;;;;;8.51;93.36;102478.28;5024250;28;20049;-87
2021/11/06 08:20:24;;;;;;;7.93;4.13;;;;;;;8.53;93.23;102478.91;5046305;28;20028;-87
2021/11/06 08:22:51;;;;;;;11.45;4.30;;;;;;;8.59;93.43;102492.31;5045159;28;20025;-86
2021/11/06 08:25:26;;;;;;;6.60;2.97;;;;;;;8.61;93.06;102497.47;5028185;28;20029;-90
2021/11/06 08:27:53;;;;;;;4.97;2.90;;;;;;;8.50;92.37;102484.66;5025680;28;20119;-86
2021/11/06 08:30:23;;;;;;;6.28;3.03;;;;;;;8.58;92.36;102484.50;5029233;28;20037;-87
2021/11/06 08:32:51;;;;;;;6.13;3.00;;;;;;;8.57;92.10;102494.38;5020403;28;20033;-90
2021/11/06 08:35:18;;;;;;;8.07;2.55;;;;;;;8.63;91.61;102482.94;5023172;28;20028;-89
2021/11/06 08:37:44;;;;;;;7.35;2.75;;;;;;;8.75;92.74;102485.88;5024051;28;20510;-88
2021/11/06 08:40:11;;;;;;;5.50;3.05;;;;;;;8.74;92.01;102487.72;5028294;28;20065;-88
2021/11/06 08:42:41;;;;;;;5.82;2.53;;;;;;;8.73;91.74;102491.41;5022778;28;20052;-88
2021/11/06 08:45:14;;;;;;;7.18;2.85;;;;;;;8.72;91.36;102495.13;5028651;28;20032;-90
2021/11/06 08:47:41;;;;;;;9.30;3.00;;;;;;;8.49;90.80;102494.50;5022616;28;20046;-88
2021/11/06 08:50:15;;;;;;;7.78;2.67;;;;;;;8.70;91.89;102497.16;5028922;28;20033;-87
2021/11/06 08:52:44;;;;;;;9.52;3.20;;;;;;;8.75;91.23;102492.06;5036325;28;20022;-90
2021/11/06 08:55:11;;;;;;;8.43;2.83;;;;;;;8.67;91.31;102494.88;5018071;28;20021;-88
2021/11/06 08:57:45;;;;;;;4.93;2.80;;;;;;;8.71;91.75;102495.31;5047320;28;20032;-89
2021/11/06 09:00:15;;;;;;;8.77;2.70;;;;;;;8.72;91.59;102499.63;5025475;28;20522;-89
2021/11/06 09:02:42;;;;;;;4.32;2.60;;;;;;;8.71;91.33;102500.66;5032616;28;20295;-87
2021/11/06 09:05:08;;;;;;;5.50;2.97;;;;;;;8.86;92.40;102503.25;5044451;28;20036;-88
2021/11/06 09:07:47;;;;;;;11.02;3.33;;;;;;;8.78;92.08;102496.19;5016124;28;20458;-93
2021/11/06 09:10:16;;;;;;;6.80;2.92;;;;;;;8.67;90.87;102504.75;5025750;28;20029;-89
2021/11/06 09:12:42;;;;;;;8.82;2.40;;;;;;;8.73;90.87;102499.44;5029706;28;20033;-87
2021/11/06 09:15:08;;;;;;;7.47;3.10;;;;;;;8.70;90.30;102499.84;5020533;28;20613;-88
2021/11/06 09:17:45;;;;;;;10.43;3.00;;;;;;;8.85;91.34;102496.25;5027337;28;20037;-89
2021/11/06 09:20:12;;;;;;;8.63;3.35;;;;;;;8.85;90.89;102493.56;5026262;28;20481;-86
2021/11/06 09:23:42;;;;;;;6.75;2.60;;;;;;;8.84;90.68;102494.59;5024112;28;20037;-88
2021/11/06 09:26:01;;;;;;;8.68;3.47;;;;;;;8.83;90.46;102492.94;4986953;28;20038;-88
2021/11/06 09:28:44;;;;;;;6.28;3.13;;;;;;;8.89;90.70;102492.16;5032922;28;20116;-88
2021/11/06 09:31:38;;;;;;;10.02;3.53;;;;;;;8.95;90.00;102491.38;5025317;28;20026;-88
2021/11/06 09:38:10;;;;;;;8.65;4.40;;;;;;;8.78;89.52;102502.34;5025167;28;20021;-90
2021/11/06 09:40:37;;;;;;;6.28;3.42;;;;;;;8.78;89.32;102507.69;4964036;28;20705;-91
2021/11/06 09:43:20;;;;;;;8.40;3.35;;;;;;;8.75;90.17;102515.28;4990012;28;20464;-89
2021/11/06 09:45:54;;;;;;;5.07;3.38;;;;;;;8.87;89.86;102515.59;5041477;28;20034;-88
2021/11/06 09:48:32;;;;;;;6.95;3.53;;;;;;;8.74;89.39;102509.09;5026015;28;20033;-87
2021/11/06 09:51:02;;;;;;;6.00;3.33;;;;;;;8.71;89.62;102522.84;5024656;28;20037;-89
2021/11/06 09:53:50;;;;;;;9.52;3.20;;;;;;;8.75;90.13;102508.09;5020286;28;20412;-90
2021/11/06 09:56:18;;;;;;;7.13;4.00;;;;;;;8.74;90.07;102513.63;5029356;28;20021;-87
2021/11/06 09:58:44;;;;;;;6.03;3.17;;;;;;;8.89;90.34;102508.19;5028665;28;20032;-87
2021/11/06 10:01:15;;;;;;;6.07;2.80;;;;;;;8.87;89.73;102504.91;5028263;28;20431;-87
2021/11/06 10:03:40;;;;;;;7.60;2.60;;;;;;;8.86;89.14;102508.59;5023735;28;20061;-87
2021/11/06 10:06:16;;;;;;;9.63;3.10;;;;;;;8.79;89.08;102508.53;5037902;28;20052;-85
2021/11/06 10:08:44;;;;;;;8.57;3.08;;;;;;;8.84;89.07;102510.63;5029116;28;20459;-86
2021/11/06 10:11:13;;;;;;;6.78;3.45;;;;;;;8.86;89.15;102511.28;5030447;28;20017;-86
2021/11/06 10:13:50;;;;;;;6.35;2.92;;;;;;;8.82;89.04;102505.50;5027705;28;20546;-88
2021/11/06 10:16:36;;;;;;;5.85;3.03;;;;;;;8.93;89.72;102504.13;5033624;28;20021;-88
2021/11/06 10:19:08;;;;;;;9.73;3.00;;;;;;;8.99;90.09;102503.34;5033078;28;20041;-87
2021/11/06 10:21:36;;;;;;;8.35;2.85;;;;;;;9.01;89.01;102499.47;5044976;28;20120;-87
2021/11/06 10:24:01;;;;;;;5.03;2.78;;;;;;;9.15;88.98;102491.50;5026212;28;20029;-87
2021/11/06 10:26:33;;;;;;;8.13;3.20;;;;;;;9.04;88.45;102511.63;5033063;28;20029;-87
2021/11/06 10:29:27;;;;;;;10.93;3.70;;;;;;;9.15;87.85;102492.34;5024678;28;20055;-87
2021/11/06 10:31:53;;;;;;;4.88;2.85;;;;;;;9.25;88.03;102492.00;5027885;28;20024;-89
2021/11/06 10:34:20;;;;;;;10.13;4.68;;;;;;;9.38;88.25;102487.56;5030144;28;20017;-86
2021/11/06 10:37:05;;;;;;;8.52;3.42;;;;;;;9.53;87.60;102484.75;5031805;28;20036;-87
2021/11/06 10:39:31;;;;;;;7.15;3.00;;;;;;;9.47;85.81;102487.38;5025409;28;20037;-87
2021/11/06 10:42:18;;;;;;;11.50;4.30;;;;;;;9.49;85.93;102479.97;5046781;28;20033;-88
2021/11/06 10:44:44;;;;;;;7.28;3.25;;;;;;;9.58;86.08;102482.31;5028117;28;20025;-87
2021/11/06 10:47:10;;;;;;;8.55;2.90;;;;;;;9.68;86.07;102482.75;5028987;28;20029;-87
2021/11/06 10:49:42;;;;;;;5.85;3.35;;;;;;;9.70;86.12;102479.88;5023647;28;20034;-88
2021/11/06 10:52:13;;;;;;;6.50;3.50;;;;;;;9.70;85.75;102479.88;5027237;28;20021;-86
2021/11/06 10:55:20;;;;;;;4.65;3.10;;;;;;;9.58;85.01;102482.31;5026935;28;20605;-87
2021/11/06 10:57:45;;;;;;;7.55;3.42;;;;;;;9.56;84.91;102483.53;4971072;28;20031;-88
2021/11/06 11:00:18;;;;;;;5.65;3.35;;;;;;;9.60;85.37;102484.78;4974382;28;20180;-87
2021/11/06 11:02:47;;;;;;;8.30;3.45;;;;;;;9.59;84.68;102477.78;5018136;28;20124;-88
2021/11/06 11:05:30;;;;;;;6.13;3.60;;;;;;;9.56;84.14;102491.56;5027833;28;20028;-88
2021/11/06 11:08:07;;;;;;;6.18;2.88;;;;;;;9.64;84.66;102480.66;5046221;28;20037;-87
2021/11/06 11:10:33;;;;;;;6.47;3.25;;;;;;;9.54;84.36;102481.06;5030338;28;20484;-87
2021/11/06 11:13:21;;;;;;;5.70;3.38;;;;;;;9.54;84.74;102474.88;5029435;28;20018;-87
2021/11/06 11:19:02;;;;;;;8.98;3.63;;;;;;;9.68;85.01;102476.56;5029389;22;20053;-58
2021/11/06 11:21:39;;;;;;;5.50;3.10;;;;;;;9.60;84.24;102468.72;5002525;28;20582;-57
2021/11/06 11:24:11;;;;;;;7.25;3.33;;;;;;;9.56;84.86;102468.28;5008177;28;20073;-56
2021/11/06 11:26:45;;;;;;;5.65;3.55;;;;;;;9.52;84.54;102474.25;5004404;28;20498;-58
2021/11/06 11:29:13;;;;;;;6.85;3.38;;;;;;;9.62;85.33;102461.31;5001353;28;20096;-59
2021/11/06 11:34:08;;;;;;;5.97;3.53;;;;;;;9.64;84.71;102464.63;4996729;28;20050;-54
2021/11/06 11:36:37;;;;;;;4.93;3.40;;;;;;;9.60;84.53;102471.41;5002531;28;20036;-53
2021/11/06 11:39:06;;;;;;;11.57;4.95;;;;;;;9.43;84.46;102462.88;5000397;28;20053;-51
2021/11/06 11:41:46;;;;;;;8.00;3.85;;;;;;;9.45;84.95;102468.03;5002038;28;20431;-56